sensor_id;sensor_type;location;lat;lon;timestamp;noise_LAeq;noise_LA_min;noise_LA_max;noise_LA01;noise_LA95
43512;Laerm;34054;52.100;5.116;2024-02-15T00:00:26;35.75;31.99;40.59;;
43512;Laerm;34054;52.100;5.116;2024-02-15T00:00:58;35.77;32.16;39.74;;
43512;Laerm;34054;52.100;5.116;2024-02-15T00:01:31;35.72;32.29;41.00;;
43512;Laerm;34054;52.100;5.116;2024-02-15T00:02:03;35.75;31.81;40.34;;
43512;Laerm;34054;52.100;5.116;2024-02-15T00:02:35;35.78;32.31;40.77;;
43512;Laerm;34054;52.100;5.116;2024-02-15T00:03:07;35.62;32.33;41.70;;
43512;Laerm;34054;52.100;5.116;2024-02-15T00:03:39;35.86;32.13;41.12;;
43512;Laerm;34054;52.100;5.116;2024-02-15T00:04:11;35.88;32.53;40.61;;
43512;Laerm;34054;52.100;5.116;2024-02-15T00:04:42;35.77;32.11;41.08;;
43512;Laerm;34054;52.100;5.116;2024-02-15T00:05:16;35.79;31.94;39.63;;
43512;Laerm;34054;52.100;5.116;2024-02-15T00:05:47;38.69;32.21;55.58;;
43512;Laerm;34054;52.100;5.116;2024-02-15T00:06:20;35.79;31.89;41.15;;
43512;Laerm;34054;52.100;5.116;2024-02-15T00:06:51;35.86;32.63;40.41;;
43512;Laerm;34054;52.100;5.116;2024-02-15T00:07:24;35.68;32.44;40.63;;
43512;Laerm;34054;52.100;5.116;2024-02-15T00:07:55;35.68;32.22;41.17;;
43512;Laerm;34054;52.100;5.116;2024-02-15T00:08:29;35.74;32.45;41.09;;
43512;Laerm;34054;52.100;5.116;2024-02-15T00:09:02;36.01;32.40;50.04;;
43512;Laerm;34054;52.100;5.116;2024-02-15T00:09:34;35.79;32.50;43.81;;
43512;Laerm;34054;52.100;5.116;2024-02-15T00:10:07;35.89;31.91;41.00;;
43512;Laerm;34054;52.100;5.116;2024-02-15T00:10:40;35.72;32.19;41.34;;
43512;Laerm;34054;52.100;5.116;2024-02-15T00:11:11;35.78;32.15;41.07;;
43512;Laerm;34054;52.100;5.116;2024-02-15T00:11:44;35.75;32.34;40.74;;
43512;Laerm;34054;52.100;5.116;2024-02-15T00:12:16;35.82;32.05;40.87;;
43512;Laerm;34054;52.100;5.116;2024-02-15T00:12:48;35.75;32.28;41.49;;
43512;Laerm;34054;52.100;5.116;2024-02-15T00:13:21;35.75;32.31;40.40;;
43512;Laerm;34054;52.100;5.116;2024-02-15T00:13:54;35.79;32.44;40.86;;
43512;Laerm;34054;52.100;5.116;2024-02-15T00:14:27;35.81;32.19;40.87;;
43512;Laerm;34054;52.100;5.116;2024-02-15T00:14:59;35.85;32.39;41.32;;
43512;Laerm;34054;52.100;5.116;2024-02-15T00:15:31;35.82;32.68;42.28;;
43512;Laerm;34054;52.100;5.116;2024-02-15T00:16:05;36.43;32.33;44.73;;
43512;Laerm;34054;52.100;5.116;2024-02-15T00:16:36;35.72;32.40;40.25;;
43512;Laerm;34054;52.100;5.116;2024-02-15T00:17:08;35.69;32.28;41.10;;
43512;Laerm;34054;52.100;5.116;2024-02-15T00:17:39;35.67;32.43;40.71;;
43512;Laerm;34054;52.100;5.116;2024-02-15T00:18:12;35.73;31.87;41.08;;
43512;Laerm;34054;52.100;5.116;2024-02-15T00:18:44;35.71;32.13;40.49;;
43512;Laerm;34054;52.100;5.116;2024-02-15T00:19:16;35.73;32.13;40.60;;
43512;Laerm;34054;52.100;5.116;2024-02-15T00:19:48;35.72;32.32;39.55;;
43512;Laerm;34054;52.100;5.116;2024-02-15T00:20:21;35.73;32.49;40.53;;
43512;Laerm;34054;52.100;5.116;2024-02-15T00:20:52;35.67;32.17;39.62;;
43512;Laerm;34054;52.100;5.116;2024-02-15T00:21:24;35.73;32.64;46.47;;
43512;Laerm;34054;52.100;5.116;2024-02-15T00:21:56;37.78;32.50;55.10;;
43512;Laerm;34054;52.100;5.116;2024-02-15T00:22:28;35.85;32.21;45.65;;
43512;Laerm;34054;52.100;5.116;2024-02-15T00:23:01;35.64;32.18;40.86;;
43512;Laerm;34054;52.100;5.116;2024-02-15T00:23:32;35.84;32.56;40.77;;
43512;Laerm;34054;52.100;5.116;2024-02-15T00:24:05;35.73;32.35;41.00;;
43512;Laerm;34054;52.100;5.116;2024-02-15T00:24:38;35.66;32.08;41.00;;
43512;Laerm;34054;52.100;5.116;2024-02-15T00:25:10;35.57;32.23;40.23;;
43512;Laerm;34054;52.100;5.116;2024-02-15T00:25:42;35.57;32.38;40.50;;
43512;Laerm;34054;52.100;5.116;2024-02-15T00:26:16;35.62;31.98;40.70;;
43512;Laerm;34054;52.100;5.116;2024-02-15T00:26:47;35.58;31.70;39.99;;
43512;Laerm;34054;52.100;5.116;2024-02-15T00:27:19;35.64;32.58;39.77;;
43512;Laerm;34054;52.100;5.116;2024-02-15T00:27:51;35.57;32.37;40.06;;
43512;Laerm;34054;52.100;5.116;2024-02-15T00:28:22;36.14;32.39;48.20;;
43512;Laerm;34054;52.100;5.116;2024-02-15T00:28:55;39.71;32.36;60.16;;
43512;Laerm;34054;52.100;5.116;2024-02-15T00:29:26;36.00;32.29;49.94;;
43512;Laerm;34054;52.100;5.116;2024-02-15T00:30:00;35.57;31.86;40.60;;
43512;Laerm;34054;52.100;5.116;2024-02-15T00:30:31;35.65;32.15;39.85;;
43512;Laerm;34054;52.100;5.116;2024-02-15T00:31:04;35.68;31.94;40.60;;
43512;Laerm;34054;52.100;5.116;2024-02-15T00:31:35;35.60;32.02;41.69;;
43512;Laerm;34054;52.100;5.116;2024-02-15T00:32:07;35.90;32.23;46.60;;
43512;Laerm;34054;52.100;5.116;2024-02-15T00:32:38;35.69;32.66;40.23;;
43512;Laerm;34054;52.100;5.116;2024-02-15T00:33:11;35.58;32.11;40.61;;
43512;Laerm;34054;52.100;5.116;2024-02-15T00:33:42;35.68;32.28;40.43;;
43512;Laerm;34054;52.100;5.116;2024-02-15T00:34:15;35.74;32.19;46.80;;
43512;Laerm;34054;52.100;5.116;2024-02-15T00:34:47;35.71;32.49;41.13;;
43512;Laerm;34054;52.100;5.116;2024-02-15T00:35:20;35.74;32.18;41.29;;
43512;Laerm;34054;52.100;5.116;2024-02-15T00:35:51;35.56;32.44;40.79;;
43512;Laerm;34054;52.100;5.116;2024-02-15T00:36:23;35.70;32.42;39.95;;
43512;Laerm;34054;52.100;5.116;2024-02-15T00:36:55;35.54;32.48;39.87;;
43512;Laerm;34054;52.100;5.116;2024-02-15T00:37:27;35.63;32.15;40.99;;
43512;Laerm;34054;52.100;5.116;2024-02-15T00:37:59;35.65;32.16;41.11;;
43512;Laerm;34054;52.100;5.116;2024-02-15T00:38:32;35.55;31.96;41.47;;
43512;Laerm;34054;52.100;5.116;2024-02-15T00:39:05;35.56;32.44;40.62;;
43512;Laerm;34054;52.100;5.116;2024-02-15T00:39:37;35.71;32.36;40.64;;
43512;Laerm;34054;52.100;5.116;2024-02-15T00:40:10;35.81;32.30;40.72;;
43512;Laerm;34054;52.100;5.116;2024-02-15T00:40:43;35.61;32.06;40.76;;
43512;Laerm;34054;52.100;5.116;2024-02-15T00:41:14;35.60;32.17;40.54;;
43512;Laerm;34054;52.100;5.116;2024-02-15T00:41:46;35.71;32.25;40.50;;
43512;Laerm;34054;52.100;5.116;2024-02-15T00:42:18;35.66;32.45;39.86;;
43512;Laerm;34054;52.100;5.116;2024-02-15T00:42:50;35.58;32.26;39.95;;
43512;Laerm;34054;52.100;5.116;2024-02-15T00:43:22;35.60;32.26;40.49;;
43512;Laerm;34054;52.100;5.116;2024-02-15T00:43:54;35.57;32.35;40.46;;
43512;Laerm;34054;52.100;5.116;2024-02-15T00:44:25;35.54;32.16;41.26;;
43512;Laerm;34054;52.100;5.116;2024-02-15T00:44:58;35.56;32.04;39.98;;
43512;Laerm;34054;52.100;5.116;2024-02-15T00:45:29;35.69;31.66;40.91;;
43512;Laerm;34054;52.100;5.116;2024-02-15T00:46:01;35.55;32.16;41.04;;
43512;Laerm;34054;52.100;5.116;2024-02-15T00:46:33;35.58;32.19;40.35;;
43512;Laerm;34054;52.100;5.116;2024-02-15T00:47:06;35.60;31.84;39.37;;
43512;Laerm;34054;52.100;5.116;2024-02-15T00:47:39;35.56;32.27;40.52;;
43512;Laerm;34054;52.100;5.116;2024-02-15T00:48:13;35.52;32.09;40.22;;
43512;Laerm;34054;52.100;5.116;2024-02-15T00:48:45;35.57;32.19;40.39;;
43512;Laerm;34054;52.100;5.116;2024-02-15T00:49:17;35.42;32.52;39.19;;
43512;Laerm;34054;52.100;5.116;2024-02-15T00:49:51;35.51;32.27;39.80;;
43512;Laerm;34054;52.100;5.116;2024-02-15T00:50:23;35.49;32.35;39.91;;
43512;Laerm;34054;52.100;5.116;2024-02-15T00:50:55;35.44;31.97;40.67;;
43512;Laerm;34054;52.100;5.116;2024-02-15T00:51:27;35.49;32.00;40.96;;
43512;Laerm;34054;52.100;5.116;2024-02-15T00:51:58;35.44;32.06;40.28;;
43512;Laerm;34054;52.100;5.116;2024-02-15T00:52:30;35.50;32.22;40.03;;
43512;Laerm;34054;52.100;5.116;2024-02-15T00:53:03;35.44;32.03;40.18;;
43512;Laerm;34054;52.100;5.116;2024-02-15T00:53:34;35.76;32.43;46.77;;
43512;Laerm;34054;52.100;5.116;2024-02-15T00:54:07;35.66;32.09;39.61;;
43512;Laerm;34054;52.100;5.116;2024-02-15T00:54:39;35.51;32.39;39.94;;
43512;Laerm;34054;52.100;5.116;2024-02-15T00:55:11;35.51;32.43;39.58;;
43512;Laerm;34054;52.100;5.116;2024-02-15T00:55:43;35.38;32.19;40.35;;
43512;Laerm;34054;52.100;5.116;2024-02-15T00:56:15;35.44;32.37;40.10;;
43512;Laerm;34054;52.100;5.116;2024-02-15T00:56:47;35.44;31.75;39.94;;
43512;Laerm;34054;52.100;5.116;2024-02-15T00:57:18;35.41;32.33;38.75;;
43512;Laerm;34054;52.100;5.116;2024-02-15T00:57:50;35.44;32.07;40.06;;
43512;Laerm;34054;52.100;5.116;2024-02-15T00:58:21;35.34;31.97;39.64;;
43512;Laerm;34054;52.100;5.116;2024-02-15T00:58:55;35.49;32.47;41.32;;
43512;Laerm;34054;52.100;5.116;2024-02-15T00:59:27;35.57;32.41;39.59;;
43512;Laerm;34054;52.100;5.116;2024-02-15T00:59:58;35.30;32.42;39.54;;
43512;Laerm;34054;52.100;5.116;2024-02-15T01:00:31;35.38;32.11;39.43;;
43512;Laerm;34054;52.100;5.116;2024-02-15T01:01:03;35.36;32.21;40.49;;
43512;Laerm;34054;52.100;5.116;2024-02-15T01:01:35;35.27;32.33;39.03;;
43512;Laerm;34054;52.100;5.116;2024-02-15T01:02:07;35.41;32.02;39.13;;
43512;Laerm;34054;52.100;5.116;2024-02-15T01:02:39;35.37;32.69;39.80;;
43512;Laerm;34054;52.100;5.116;2024-02-15T01:03:12;35.37;31.99;39.16;;
43512;Laerm;34054;52.100;5.116;2024-02-15T01:03:43;35.27;32.09;39.77;;
43512;Laerm;34054;52.100;5.116;2024-02-15T01:04:15;35.29;32.08;41.43;;
43512;Laerm;34054;52.100;5.116;2024-02-15T01:04:46;35.39;32.29;38.67;;
43512;Laerm;34054;52.100;5.116;2024-02-15T01:05:19;35.36;32.00;39.31;;
43512;Laerm;34054;52.100;5.116;2024-02-15T01:05:51;35.32;32.25;39.62;;
43512;Laerm;34054;52.100;5.116;2024-02-15T01:06:23;35.27;31.90;39.60;;
43512;Laerm;34054;52.100;5.116;2024-02-15T01:06:55;35.34;31.96;39.70;;
43512;Laerm;34054;52.100;5.116;2024-02-15T01:07:27;35.25;31.70;39.48;;
43512;Laerm;34054;52.100;5.116;2024-02-15T01:07:59;35.19;32.08;39.00;;
43512;Laerm;34054;52.100;5.116;2024-02-15T01:08:30;35.23;32.34;39.55;;
43512;Laerm;34054;52.100;5.116;2024-02-15T01:09:03;35.25;32.25;39.50;;
43512;Laerm;34054;52.100;5.116;2024-02-15T01:09:37;35.26;32.29;38.99;;
43512;Laerm;34054;52.100;5.116;2024-02-15T01:10:09;35.17;32.48;39.48;;
43512;Laerm;34054;52.100;5.116;2024-02-15T01:10:40;35.19;32.42;40.03;;
43512;Laerm;34054;52.100;5.116;2024-02-15T01:11:13;35.38;32.35;39.78;;
43512;Laerm;34054;52.100;5.116;2024-02-15T01:11:45;35.28;32.04;38.95;;
43512;Laerm;34054;52.100;5.116;2024-02-15T01:12:16;35.21;32.36;39.37;;
43512;Laerm;34054;52.100;5.116;2024-02-15T01:12:48;35.24;32.45;39.50;;
43512;Laerm;34054;52.100;5.116;2024-02-15T01:13:21;35.23;32.02;38.73;;
43512;Laerm;34054;52.100;5.116;2024-02-15T01:13:52;35.20;32.35;39.10;;
43512;Laerm;34054;52.100;5.116;2024-02-15T01:14:24;35.09;32.02;38.55;;
43512;Laerm;34054;52.100;5.116;2024-02-15T01:15:01;35.16;31.62;39.65;;
43512;Laerm;34054;52.100;5.116;2024-02-15T01:15:32;35.14;32.28;39.09;;
43512;Laerm;34054;52.100;5.116;2024-02-15T01:16:05;35.14;32.02;39.06;;
43512;Laerm;34054;52.100;5.116;2024-02-15T01:16:36;35.12;32.84;47.96;;
43512;Laerm;34054;52.100;5.116;2024-02-15T01:17:09;34.94;32.14;38.49;;
43512;Laerm;34054;52.100;5.116;2024-02-15T01:17:40;34.97;31.64;38.34;;
43512;Laerm;34054;52.100;5.116;2024-02-15T01:18:12;34.98;32.21;38.53;;
43512;Laerm;34054;52.100;5.116;2024-02-15T01:18:43;34.95;32.09;38.41;;
43512;Laerm;34054;52.100;5.116;2024-02-15T01:19:16;34.96;32.25;39.05;;
43512;Laerm;34054;52.100;5.116;2024-02-15T01:19:47;34.88;32.09;39.20;;
43512;Laerm;34054;52.100;5.116;2024-02-15T01:20:19;34.84;32.14;38.77;;
43512;Laerm;34054;52.100;5.116;2024-02-15T01:20:52;35.02;32.22;38.09;;
43512;Laerm;34054;52.100;5.116;2024-02-15T01:21:25;36.12;32.61;55.71;;
43512;Laerm;34054;52.100;5.116;2024-02-15T01:21:57;35.08;32.69;39.16;;
43512;Laerm;34054;52.100;5.116;2024-02-15T01:22:30;34.99;32.16;38.72;;
43512;Laerm;34054;52.100;5.116;2024-02-15T01:23:03;36.04;32.12;54.68;;
43512;Laerm;34054;52.100;5.116;2024-02-15T01:23:36;34.85;32.20;38.13;;
43512;Laerm;34054;52.100;5.116;2024-02-15T01:24:08;34.96;32.62;38.94;;
43512;Laerm;34054;52.100;5.116;2024-02-15T01:24:40;35.05;32.00;45.88;;
43512;Laerm;34054;52.100;5.116;2024-02-15T01:25:13;34.86;31.85;38.21;;
43512;Laerm;34054;52.100;5.116;2024-02-15T01:25:46;34.84;31.84;39.09;;
43512;Laerm;34054;52.100;5.116;2024-02-15T01:26:18;34.92;32.34;37.75;;
43512;Laerm;34054;52.100;5.116;2024-02-15T01:26:50;34.88;32.53;38.32;;
43512;Laerm;34054;52.100;5.116;2024-02-15T01:27:22;34.86;32.09;38.52;;
43512;Laerm;34054;52.100;5.116;2024-02-15T01:27:53;35.47;32.25;49.94;;
43512;Laerm;34054;52.100;5.116;2024-02-15T01:28:25;35.00;32.61;43.79;;
43512;Laerm;34054;52.100;5.116;2024-02-15T01:28:56;34.92;32.58;39.07;;
43512;Laerm;34054;52.100;5.116;2024-02-15T01:29:29;34.90;32.08;38.66;;
43512;Laerm;34054;52.100;5.116;2024-02-15T01:30:01;34.81;32.28;37.73;;
43512;Laerm;34054;52.100;5.116;2024-02-15T01:30:32;34.85;32.51;38.10;;
43512;Laerm;34054;52.100;5.116;2024-02-15T01:31:05;34.79;32.45;38.78;;
43512;Laerm;34054;52.100;5.116;2024-02-15T01:31:37;34.79;31.89;38.53;;
43512;Laerm;34054;52.100;5.116;2024-02-15T01:32:10;34.78;31.89;38.12;;
43512;Laerm;34054;52.100;5.116;2024-02-15T01:32:42;34.79;32.13;38.74;;
43512;Laerm;34054;52.100;5.116;2024-02-15T01:33:14;34.73;31.72;38.23;;
43512;Laerm;34054;52.100;5.116;2024-02-15T01:33:46;34.72;32.22;37.73;;
43512;Laerm;34054;52.100;5.116;2024-02-15T01:34:18;34.74;31.89;38.41;;
43512;Laerm;34054;52.100;5.116;2024-02-15T01:34:50;34.73;32.14;37.90;;
43512;Laerm;34054;52.100;5.116;2024-02-15T01:35:26;34.65;32.18;38.93;;
43512;Laerm;34054;52.100;5.116;2024-02-15T01:35:59;34.69;31.90;37.70;;
43512;Laerm;34054;52.100;5.116;2024-02-15T01:36:30;34.68;31.88;37.97;;
43512;Laerm;34054;52.100;5.116;2024-02-15T01:37:02;34.63;31.96;38.34;;
43512;Laerm;34054;52.100;5.116;2024-02-15T01:37:34;34.69;32.50;38.32;;
43512;Laerm;34054;52.100;5.116;2024-02-15T01:38:07;34.58;32.41;37.70;;
43512;Laerm;34054;52.100;5.116;2024-02-15T01:38:39;34.63;32.35;37.33;;
43512;Laerm;34054;52.100;5.116;2024-02-15T01:39:11;34.69;32.29;37.73;;
43512;Laerm;34054;52.100;5.116;2024-02-15T01:39:44;34.58;31.65;37.46;;
43512;Laerm;34054;52.100;5.116;2024-02-15T01:40:16;34.57;32.18;38.52;;
43512;Laerm;34054;52.100;5.116;2024-02-15T01:40:48;34.57;32.32;37.77;;
43512;Laerm;34054;52.100;5.116;2024-02-15T01:41:19;34.62;32.24;38.37;;
43512;Laerm;34054;52.100;5.116;2024-02-15T01:41:51;34.56;32.31;36.70;;
43512;Laerm;34054;52.100;5.116;2024-02-15T01:42:27;34.55;32.22;38.45;;
43512;Laerm;34054;52.100;5.116;2024-02-15T01:42:58;34.56;32.09;38.16;;
43512;Laerm;34054;52.100;5.116;2024-02-15T01:43:31;34.56;32.45;37.70;;
43512;Laerm;34054;52.100;5.116;2024-02-15T01:44:04;34.58;32.48;37.22;;
43512;Laerm;34054;52.100;5.116;2024-02-15T01:44:37;34.53;32.29;37.66;;
43512;Laerm;34054;52.100;5.116;2024-02-15T01:45:10;34.46;32.17;38.09;;
43512;Laerm;34054;52.100;5.116;2024-02-15T01:45:43;34.55;32.38;37.88;;
43512;Laerm;34054;52.100;5.116;2024-02-15T01:46:15;34.43;32.31;42.78;;
43512;Laerm;34054;52.100;5.116;2024-02-15T01:46:49;34.46;31.85;38.29;;
43512;Laerm;34054;52.100;5.116;2024-02-15T01:47:21;34.65;32.30;44.99;;
43512;Laerm;34054;52.100;5.116;2024-02-15T01:47:54;34.45;32.21;37.86;;
43512;Laerm;34054;52.100;5.116;2024-02-15T01:48:27;34.48;32.21;38.35;;
43512;Laerm;34054;52.100;5.116;2024-02-15T01:48:59;34.43;31.88;37.71;;
43512;Laerm;34054;52.100;5.116;2024-02-15T01:49:32;34.45;32.12;38.24;;
43512;Laerm;34054;52.100;5.116;2024-02-15T01:50:04;34.44;31.77;37.23;;
43512;Laerm;34054;52.100;5.116;2024-02-15T01:50:37;34.39;32.13;38.48;;
43512;Laerm;34054;52.100;5.116;2024-02-15T01:51:11;34.40;31.95;38.27;;
43512;Laerm;34054;52.100;5.116;2024-02-15T01:51:44;34.43;32.08;38.16;;
43512;Laerm;34054;52.100;5.116;2024-02-15T01:52:17;34.37;32.03;38.06;;
43512;Laerm;34054;52.100;5.116;2024-02-15T01:52:52;34.33;32.64;37.67;;
43512;Laerm;34054;52.100;5.116;2024-02-15T01:53:25;34.32;32.21;37.47;;
43512;Laerm;34054;52.100;5.116;2024-02-15T01:53:59;34.16;31.71;37.99;;
43512;Laerm;34054;52.100;5.116;2024-02-15T01:54:32;34.23;31.48;38.12;;
43512;Laerm;34054;52.100;5.116;2024-02-15T01:55:06;34.27;31.87;37.05;;
43512;Laerm;34054;52.100;5.116;2024-02-15T01:55:39;34.22;31.77;37.44;;
43512;Laerm;34054;52.100;5.116;2024-02-15T01:56:14;34.23;32.22;37.65;;
43512;Laerm;34054;52.100;5.116;2024-02-15T01:56:47;34.19;31.72;37.57;;
43512;Laerm;34054;52.100;5.116;2024-02-15T01:57:20;34.15;31.71;37.66;;
43512;Laerm;34054;52.100;5.116;2024-02-15T01:57:52;34.18;32.07;37.79;;
43512;Laerm;34054;52.100;5.116;2024-02-15T01:58:25;34.13;32.07;37.20;;
43512;Laerm;34054;52.100;5.116;2024-02-15T01:58:58;34.13;31.64;36.02;;
43512;Laerm;34054;52.100;5.116;2024-02-15T01:59:33;34.13;32.08;37.52;;
43512;Laerm;34054;52.100;5.116;2024-02-15T02:00:06;34.11;32.38;36.88;;
43512;Laerm;34054;52.100;5.116;2024-02-15T02:00:40;36.19;31.84;53.19;;
43512;Laerm;34054;52.100;5.116;2024-02-15T02:01:12;34.07;32.09;36.77;;
43512;Laerm;34054;52.100;5.116;2024-02-15T02:01:46;34.08;32.34;37.11;;
43512;Laerm;34054;52.100;5.116;2024-02-15T02:02:22;34.06;32.30;37.47;;
43512;Laerm;34054;52.100;5.116;2024-02-15T02:02:54;35.29;31.43;52.16;;
43512;Laerm;34054;52.100;5.116;2024-02-15T02:03:31;33.98;32.05;37.20;;
43512;Laerm;34054;52.100;5.116;2024-02-15T02:04:04;33.97;32.06;37.03;;
43512;Laerm;34054;52.100;5.116;2024-02-15T02:04:37;34.02;31.79;36.20;;
43512;Laerm;34054;52.100;5.116;2024-02-15T02:05:08;35.16;31.94;51.59;;
43512;Laerm;34054;52.100;5.116;2024-02-15T02:05:42;34.03;32.33;36.71;;
43512;Laerm;34054;52.100;5.116;2024-02-15T02:06:16;34.05;31.99;37.52;;
43512;Laerm;34054;52.100;5.116;2024-02-15T02:06:47;34.02;32.28;37.43;;
43512;Laerm;34054;52.100;5.116;2024-02-15T02:07:19;34.00;31.90;37.36;;
43512;Laerm;34054;52.100;5.116;2024-02-15T02:07:50;33.96;32.05;37.27;;
43512;Laerm;34054;52.100;5.116;2024-02-15T02:08:23;33.94;31.67;36.85;;
43512;Laerm;34054;52.100;5.116;2024-02-15T02:08:54;33.99;32.28;36.49;;
43512;Laerm;34054;52.100;5.116;2024-02-15T02:09:27;33.91;31.79;37.27;;
43512;Laerm;34054;52.100;5.116;2024-02-15T02:10:00;33.91;32.02;36.55;;
43512;Laerm;34054;52.100;5.116;2024-02-15T02:10:33;33.85;31.80;36.24;;
43512;Laerm;34054;52.100;5.116;2024-02-15T02:11:05;33.87;31.98;36.88;;
43512;Laerm;34054;52.100;5.116;2024-02-15T02:11:37;33.87;31.80;37.65;;
43512;Laerm;34054;52.100;5.116;2024-02-15T02:12:09;33.87;31.59;36.44;;
43512;Laerm;34054;52.100;5.116;2024-02-15T02:12:41;33.94;31.56;36.68;;
43512;Laerm;34054;52.100;5.116;2024-02-15T02:13:13;33.85;31.35;36.25;;
43512;Laerm;34054;52.100;5.116;2024-02-15T02:13:45;33.76;31.87;36.06;;
43512;Laerm;34054;52.100;5.116;2024-02-15T02:14:17;33.79;31.52;36.11;;
43512;Laerm;34054;52.100;5.116;2024-02-15T02:14:51;33.88;31.82;46.66;;
43512;Laerm;34054;52.100;5.116;2024-02-15T02:15:23;34.03;31.84;42.43;;
43512;Laerm;34054;52.100;5.116;2024-02-15T02:15:55;33.74;31.76;36.88;;
43512;Laerm;34054;52.100;5.116;2024-02-15T02:16:29;33.76;31.73;37.17;;
43512;Laerm;34054;52.100;5.116;2024-02-15T02:17:12;33.78;31.79;35.99;;
43512;Laerm;34054;52.100;5.116;2024-02-15T02:17:48;33.80;31.95;37.51;;
43512;Laerm;34054;52.100;5.116;2024-02-15T02:18:22;33.78;31.89;36.49;;
43512;Laerm;34054;52.100;5.116;2024-02-15T02:18:55;33.75;31.63;37.13;;
43512;Laerm;34054;52.100;5.116;2024-02-15T02:19:27;33.82;31.97;36.47;;
43512;Laerm;34054;52.100;5.116;2024-02-15T02:19:59;33.75;32.06;36.17;;
43512;Laerm;34054;52.100;5.116;2024-02-15T02:20:32;33.75;31.71;39.98;;
43512;Laerm;34054;52.100;5.116;2024-02-15T02:21:05;33.74;32.11;36.95;;
43512;Laerm;34054;52.100;5.116;2024-02-15T02:21:39;33.73;31.84;35.83;;
43512;Laerm;34054;52.100;5.116;2024-02-15T02:22:12;33.78;31.85;36.44;;
43512;Laerm;34054;52.100;5.116;2024-02-15T02:22:46;33.70;31.72;36.09;;
43512;Laerm;34054;52.100;5.116;2024-02-15T02:23:25;33.76;31.94;35.75;;
43512;Laerm;34054;52.100;5.116;2024-02-15T02:24:02;33.72;31.75;39.38;;
43512;Laerm;34054;52.100;5.116;2024-02-15T02:24:40;33.74;31.96;37.60;;
43512;Laerm;34054;52.100;5.116;2024-02-15T02:25:18;33.74;31.68;36.53;;
43512;Laerm;34054;52.100;5.116;2024-02-15T02:25:50;33.72;31.93;36.33;;
43512;Laerm;34054;52.100;5.116;2024-02-15T02:26:25;35.33;32.27;56.40;;
43512;Laerm;34054;52.100;5.116;2024-02-15T02:26:56;35.27;32.07;50.41;;
43512;Laerm;34054;52.100;5.116;2024-02-15T02:27:28;33.73;31.41;37.12;;
43512;Laerm;34054;52.100;5.116;2024-02-15T02:28:01;33.78;31.82;42.48;;
43512;Laerm;34054;52.100;5.116;2024-02-15T02:28:34;33.72;32.24;36.97;;
43512;Laerm;34054;52.100;5.116;2024-02-15T02:29:06;33.74;31.79;36.19;;
43512;Laerm;34054;52.100;5.116;2024-02-15T02:29:42;33.68;31.39;36.60;;
43512;Laerm;34054;52.100;5.116;2024-02-15T02:30:17;33.67;31.77;36.21;;
43512;Laerm;34054;52.100;5.116;2024-02-15T02:30:50;33.65;31.80;36.38;;
43512;Laerm;34054;52.100;5.116;2024-02-15T02:31:22;33.65;32.17;36.45;;
43512;Laerm;34054;52.100;5.116;2024-02-15T02:31:54;33.68;31.75;34.99;;
43512;Laerm;34054;52.100;5.116;2024-02-15T02:32:26;33.68;31.79;36.45;;
43512;Laerm;34054;52.100;5.116;2024-02-15T02:32:58;33.65;32.20;36.13;;
43512;Laerm;34054;52.100;5.116;2024-02-15T02:33:30;33.63;31.85;36.25;;
43512;Laerm;34054;52.100;5.116;2024-02-15T02:34:02;33.63;31.88;35.91;;
43512;Laerm;34054;52.100;5.116;2024-02-15T02:34:34;33.93;31.79;47.97;;
43512;Laerm;34054;52.100;5.116;2024-02-15T02:35:07;33.61;31.96;38.06;;
43512;Laerm;34054;52.100;5.116;2024-02-15T02:35:42;33.61;31.70;36.02;;
43512;Laerm;34054;52.100;5.116;2024-02-15T02:36:15;33.61;32.02;36.07;;
43512;Laerm;34054;52.100;5.116;2024-02-15T02:36:47;33.61;31.47;35.77;;
43512;Laerm;34054;52.100;5.116;2024-02-15T02:37:21;33.60;31.83;35.75;;
43512;Laerm;34054;52.100;5.116;2024-02-15T02:37:53;33.56;31.96;35.75;;
43512;Laerm;34054;52.100;5.116;2024-02-15T02:38:24;33.60;31.46;35.82;;
43512;Laerm;34054;52.100;5.116;2024-02-15T02:38:57;33.57;31.71;36.37;;
43512;Laerm;34054;52.100;5.116;2024-02-15T02:39:31;33.55;32.08;39.19;;
43512;Laerm;34054;52.100;5.116;2024-02-15T02:40:04;33.58;31.45;36.60;;
43512;Laerm;34054;52.100;5.116;2024-02-15T02:40:37;33.55;32.25;35.18;;
43512;Laerm;34054;52.100;5.116;2024-02-15T02:41:09;33.57;32.10;37.10;;
43512;Laerm;34054;52.100;5.116;2024-02-15T02:41:42;33.57;31.41;35.99;;
43512;Laerm;34054;52.100;5.116;2024-02-15T02:42:13;33.55;32.01;35.94;;
43512;Laerm;34054;52.100;5.116;2024-02-15T02:42:53;33.60;31.59;35.94;;
43512;Laerm;34054;52.100;5.116;2024-02-15T02:43:24;33.60;31.86;36.37;;
43512;Laerm;34054;52.100;5.116;2024-02-15T02:43:57;33.56;31.96;35.78;;
43512;Laerm;34054;52.100;5.116;2024-02-15T02:44:28;33.55;32.00;35.94;;
43512;Laerm;34054;52.100;5.116;2024-02-15T02:45:00;33.59;31.69;36.27;;
43512;Laerm;34054;52.100;5.116;2024-02-15T02:45:33;33.61;31.55;35.57;;
43512;Laerm;34054;52.100;5.116;2024-02-15T02:46:04;33.56;32.08;36.03;;
43512;Laerm;34054;52.100;5.116;2024-02-15T02:46:37;33.56;31.91;37.55;;
43512;Laerm;34054;52.100;5.116;2024-02-15T02:47:08;33.52;31.79;35.61;;
43512;Laerm;34054;52.100;5.116;2024-02-15T02:47:40;33.50;31.53;35.49;;
43512;Laerm;34054;52.100;5.116;2024-02-15T02:48:13;33.50;31.99;35.72;;
43512;Laerm;34054;52.100;5.116;2024-02-15T02:48:44;33.55;31.80;39.29;;
43512;Laerm;34054;52.100;5.116;2024-02-15T02:49:16;33.54;31.84;35.76;;
43512;Laerm;34054;52.100;5.116;2024-02-15T02:49:48;33.50;31.72;36.48;;
43512;Laerm;34054;52.100;5.116;2024-02-15T02:50:21;33.47;31.68;35.95;;
43512;Laerm;34054;52.100;5.116;2024-02-15T02:50:54;33.46;31.63;35.62;;
43512;Laerm;34054;52.100;5.116;2024-02-15T02:51:26;33.51;32.08;35.94;;
43512;Laerm;34054;52.100;5.116;2024-02-15T02:51:57;33.54;31.72;36.12;;
43512;Laerm;34054;52.100;5.116;2024-02-15T02:52:30;33.49;32.16;35.45;;
43512;Laerm;34054;52.100;5.116;2024-02-15T02:53:01;33.53;31.87;35.19;;
43512;Laerm;34054;52.100;5.116;2024-02-15T02:53:33;33.51;32.07;35.99;;
43512;Laerm;34054;52.100;5.116;2024-02-15T02:54:04;33.56;31.68;35.91;;
43512;Laerm;34054;52.100;5.116;2024-02-15T02:54:37;33.61;31.99;36.30;;
43512;Laerm;34054;52.100;5.116;2024-02-15T02:55:09;33.65;32.00;36.41;;
43512;Laerm;34054;52.100;5.116;2024-02-15T02:55:42;33.63;31.88;36.28;;
43512;Laerm;34054;52.100;5.116;2024-02-15T02:56:13;33.63;32.07;35.41;;
43512;Laerm;34054;52.100;5.116;2024-02-15T02:56:46;33.56;31.67;35.12;;
43512;Laerm;34054;52.100;5.116;2024-02-15T02:57:17;33.58;31.91;35.21;;
43512;Laerm;34054;52.100;5.116;2024-02-15T02:57:49;33.55;31.79;35.39;;
43512;Laerm;34054;52.100;5.116;2024-02-15T02:58:21;33.53;31.88;35.87;;
43512;Laerm;34054;52.100;5.116;2024-02-15T02:58:54;33.55;31.55;37.12;;
43512;Laerm;34054;52.100;5.116;2024-02-15T02:59:25;33.62;32.23;35.59;;
43512;Laerm;34054;52.100;5.116;2024-02-15T02:59:57;33.56;31.93;34.79;;
43512;Laerm;34054;52.100;5.116;2024-02-15T03:00:28;33.66;31.76;35.88;;
43512;Laerm;34054;52.100;5.116;2024-02-15T03:01:00;33.47;31.83;35.89;;
43512;Laerm;34054;52.100;5.116;2024-02-15T03:01:32;33.51;31.95;35.70;;
43512;Laerm;34054;52.100;5.116;2024-02-15T03:02:04;33.48;31.93;35.75;;